sensor_id;sensor_type;location;lat;lon;timestamp;pressure;altitude;pressure_sealevel;temperature;humidity
7930;BME280;4010;42.698;23.124;2023-09-07T00:01:11;118349.16;;;-140.64;100.00
7930;BME280;4010;42.698;23.124;2023-09-07T00:03:39;118349.16;;;-140.64;100.00
7930;BME280;4010;42.698;23.124;2023-09-07T00:06:06;118349.16;;;-140.64;100.00
7930;BME280;4010;42.698;23.124;2023-09-07T00:08:33;118349.16;;;-140.64;100.00
7930;BME280;4010;42.698;23.124;2023-09-07T00:11:02;118349.16;;;-140.64;100.00
7930;BME280;4010;42.698;23.124;2023-09-07T00:13:29;118349.16;;;-140.64;100.00
7930;BME280;4010;42.698;23.124;2023-09-07T00:15:58;118349.16;;;-140.64;100.00
7930;BME280;4010;42.698;23.124;2023-09-07T00:18:25;118349.16;;;-140.64;100.00
7930;BME280;4010;42.698;23.124;2023-09-07T00:20:53;118349.16;;;-140.64;100.00
7930;BME280;4010;42.698;23.124;2023-09-07T00:23:20;118349.16;;;-140.64;100.00
7930;BME280;4010;42.698;23.124;2023-09-07T00:25:47;118349.16;;;-140.64;100.00
7930;BME280;4010;42.698;23.124;2023-09-07T00:28:13;118349.16;;;-140.64;100.00
7930;BME280;4010;42.698;23.124;2023-09-07T00:30:40;118349.16;;;-140.64;100.00
7930;BME280;4010;42.698;23.124;2023-09-07T00:33:07;118349.16;;;-140.64;100.00
7930;BME280;4010;42.698;23.124;2023-09-07T00:35:33;118349.16;;;-140.64;100.00
7930;BME280;4010;42.698;23.124;2023-09-07T00:38:02;118349.16;;;-140.64;100.00
7930;BME280;4010;42.698;23.124;2023-09-07T00:40:30;118349.16;;;-140.64;100.00
7930;BME280;4010;42.698;23.124;2023-09-07T00:42:58;118349.16;;;-140.64;100.00
7930;BME280;4010;42.698;23.124;2023-09-07T00:45:25;118349.16;;;-140.64;100.00
7930;BME280;4010;42.698;23.124;2023-09-07T00:47:52;118349.16;;;-140.64;100.00
7930;BME280;4010;42.698;23.124;2023-09-07T00:50:18;118349.16;;;-140.64;100.00
7930;BME280;4010;42.698;23.124;2023-09-07T00:52:47;118349.16;;;-140.64;100.00
7930;BME280;4010;42.698;23.124;2023-09-07T00:55:15;118349.16;;;-140.64;100.00
7930;BME280;4010;42.698;23.124;2023-09-07T00:57:42;118349.16;;;-140.64;100.00
7930;BME280;4010;42.698;23.124;2023-09-07T01:00:09;118349.16;;;-140.64;100.00
7930;BME280;4010;42.698;23.124;2023-09-07T01:02:37;118349.16;;;-140.64;100.00
7930;BME280;4010;42.698;23.124;2023-09-07T01:05:04;118349.16;;;-140.64;100.00
7930;BME280;4010;42.698;23.124;2023-09-07T01:07:35;118349.16;;;-140.64;100.00
7930;BME280;4010;42.698;23.124;2023-09-07T01:10:03;118349.16;;;-140.64;100.00
7930;BME280;4010;42.698;23.124;2023-09-07T01:12:32;118349.16;;;-140.64;100.00
7930;BME280;4010;42.698;23.124;2023-09-07T01:14:58;118349.16;;;-140.64;100.00
7930;BME280;4010;42.698;23.124;2023-09-07T01:17:26;118349.16;;;-140.64;100.00
7930;BME280;4010;42.698;23.124;2023-09-07T01:19:53;118349.16;;;-140.64;100.00
7930;BME280;4010;42.698;23.124;2023-09-07T01:22:22;118349.16;;;-140.64;100.00
7930;BME280;4010;42.698;23.124;2023-09-07T01:24:50;118349.16;;;-140.64;100.00
7930;BME280;4010;42.698;23.124;2023-09-07T01:27:18;118349.16;;;-140.64;100.00
7930;BME280;4010;42.698;23.124;2023-09-07T01:29:45;118349.16;;;-140.64;100.00
7930;BME280;4010;42.698;23.124;2023-09-07T01:32:11;118349.16;;;-140.64;100.00
7930;BME280;4010;42.698;23.124;2023-09-07T01:34:39;118349.16;;;-140.64;100.00
7930;BME280;4010;42.698;23.124;2023-09-07T01:37:05;118349.16;;;-140.64;100.00
7930;BME280;4010;42.698;23.124;2023-09-07T01:39:33;118349.16;;;-140.64;100.00
7930;BME280;4010;42.698;23.124;2023-09-07T01:42:00;118349.16;;;-140.64;100.00
7930;BME280;4010;42.698;23.124;2023-09-07T01:44:27;118349.16;;;-140.64;100.00
7930;BME280;4010;42.698;23.124;2023-09-07T01:46:55;118349.16;;;-140.64;100.00
7930;BME280;4010;42.698;23.124;2023-09-07T01:49:21;118349.16;;;-140.64;100.00
7930;BME280;4010;42.698;23.124;2023-09-07T01:51:51;118349.16;;;-140.64;100.00
7930;BME280;4010;42.698;23.124;2023-09-07T01:54:17;118349.16;;;-140.64;100.00
7930;BME280;4010;42.698;23.124;2023-09-07T01:56:45;118349.16;;;-140.64;100.00
7930;BME280;4010;42.698;23.124;2023-09-07T01:59:12;118349.16;;;-140.64;100.00
7930;BME280;4010;42.698;23.124;2023-09-07T02:01:39;118349.16;;;-140.64;100.00
7930;BME280;4010;42.698;23.124;2023-09-07T02:04:05;118349.16;;;-140.64;100.00
7930;BME280;4010;42.698;23.124;2023-09-07T02:06:32;118349.16;;;-140.64;100.00
7930;BME280;4010;42.698;23.124;2023-09-07T02:08:59;118349.16;;;-140.64;100.00
7930;BME280;4010;42.698;23.124;2023-09-07T02:11:25;118349.16;;;-140.64;100.00
7930;BME280;4010;42.698;23.124;2023-09-07T02:13:53;118349.16;;;-140.64;100.00
7930;BME280;4010;42.698;23.124;2023-09-07T02:16:20;118349.16;;;-140.64;100.00
7930;BME280;4010;42.698;23.124;2023-09-07T02:18:49;118349.16;;;-140.64;100.00
7930;BME280;4010;42.698;23.124;2023-09-07T02:21:16;118349.16;;;-140.64;100.00
7930;BME280;4010;42.698;23.124;2023-09-07T02:23:43;118349.16;;;-140.64;100.00
7930;BME280;4010;42.698;23.124;2023-09-07T02:26:09;118349.16;;;-140.64;100.00
7930;BME280;4010;42.698;23.124;2023-09-07T02:28:36;118349.16;;;-140.64;100.00
7930;BME280;4010;42.698;23.124;2023-09-07T02:31:05;118349.16;;;-140.64;100.00
7930;BME280;4010;42.698;23.124;2023-09-07T02:33:31;118349.16;;;-140.64;100.00
7930;BME280;4010;42.698;23.124;2023-09-07T02:35:58;118349.16;;;-140.64;100.00
7930;BME280;4010;42.698;23.124;2023-09-07T02:38:25;118349.16;;;-140.64;100.00
7930;BME280;4010;42.698;23.124;2023-09-07T02:40:52;118349.16;;;-140.64;100.00
7930;BME280;4010;42.698;23.124;2023-09-07T02:43:19;118349.16;;;-140.64;100.00
7930;BME280;4010;42.698;23.124;2023-09-07T02:45:48;118349.16;;;-140.64;100.00
7930;BME280;4010;42.698;23.124;2023-09-07T02:48:16;118349.16;;;-140.64;100.00
7930;BME280;4010;42.698;23.124;2023-09-07T02:50:43;118349.16;;;-140.64;100.00
7930;BME280;4010;42.698;23.124;2023-09-07T02:53:14;118349.16;;;-140.64;100.00
7930;BME280;4010;42.698;23.124;2023-09-07T02:55:40;118349.16;;;-140.64;100.00
7930;BME280;4010;42.698;23.124;2023-09-07T02:58:07;118349.16;;;-140.64;100.00
7930;BME280;4010;42.698;23.124;2023-09-07T03:00:34;118349.16;;;-140.64;100.00
7930;BME280;4010;42.698;23.124;2023-09-07T03:03:01;118349.16;;;-140.64;100.00
7930;BME280;4010;42.698;23.124;2023-09-07T03:05:30;118349.16;;;-140.64;100.00
7930;BME280;4010;42.698;23.124;2023-09-07T03:07:56;118349.16;;;-140.64;100.00
7930;BME280;4010;42.698;23.124;2023-09-07T03:10:23;118349.16;;;-140.64;100.00
7930;BME280;4010;42.698;23.124;2023-09-07T03:12:50;118349.16;;;-140.64;100.00
7930;BME280;4010;42.698;23.124;2023-09-07T03:15:17;118349.16;;;-140.64;100.00
7930;BME280;4010;42.698;23.124;2023-09-07T03:17:44;118349.16;;;-140.64;100.00
7930;BME280;4010;42.698;23.124;2023-09-07T03:20:11;118349.16;;;-140.64;100.00
7930;BME280;4010;42.698;23.124;2023-09-07T03:22:41;118349.16;;;-140.64;100.00
7930;BME280;4010;42.698;23.124;2023-09-07T03:25:08;118349.16;;;-140.64;100.00
7930;BME280;4010;42.698;23.124;2023-09-07T03:27:36;118349.16;;;-140.64;100.00
7930;BME280;4010;42.698;23.124;2023-09-07T03:30:03;118349.16;;;-140.64;100.00
7930;BME280;4010;42.698;23.124;2023-09-07T03:32:31;118349.16;;;-140.64;100.00
7930;BME280;4010;42.698;23.124;2023-09-07T03:34:58;118349.16;;;-140.64;100.00
7930;BME280;4010;42.698;23.124;2023-09-07T03:37:26;118349.16;;;-140.64;100.00
7930;BME280;4010;42.698;23.124;2023-09-07T03:39:54;118349.16;;;-140.64;100.00
7930;BME280;4010;42.698;23.124;2023-09-07T03:42:21;118349.16;;;-140.64;100.00
7930;BME280;4010;42.698;23.124;2023-09-07T03:44:48;118349.16;;;-140.64;100.00
7930;BME280;4010;42.698;23.124;2023-09-07T03:47:15;118349.16;;;-140.64;100.00
7930;BME280;4010;42.698;23.124;2023-09-07T03:49:42;117851.16;;;-140.64;100.00
7930;BME280;4010;42.698;23.124;2023-09-07T03:52:09;110457.34;;;-140.64;100.00
7930;BME280;4010;42.698;23.124;2023-09-07T03:54:37;99697.84;;;-140.64;100.00
7930;BME280;4010;42.698;23.124;2023-09-07T03:57:05;94461.31;;;-140.64;100.00
7930;BME280;4010;42.698;23.124;2023-09-07T03:59:31;86882.41;;;-140.64;100.00
7930;BME280;4010;42.698;23.124;2023-09-07T04:01:58;80622.75;;;-140.64;100.00
7930;BME280;4010;42.698;23.124;2023-09-07T04:04:25;74374.47;;;-140.64;100.00
7930;BME280;4010;42.698;23.124;2023-09-07T04:06:51;64245.25;;;-140.64;100.00
7930;BME280;4010;42.698;23.124;2023-09-07T04:09:18;56215.25;;;-140.64;100.00
7930;BME280;4010;42.698;23.124;2023-09-07T04:11:45;51303.00;;;-140.64;100.00
7930;BME280;4010;42.698;23.124;2023-09-07T04:14:13;47429.94;;;-140.64;100.00
7930;BME280;4010;42.698;23.124;2023-09-07T04:16:39;43045.84;;;-140.64;100.00
7930;BME280;4010;42.698;23.124;2023-09-07T04:19:06;38152.72;;;-140.64;100.00
7930;BME280;4010;42.698;23.124;2023-09-07T04:21:33;33780.72;;;-140.64;100.00
7930;BME280;4010;42.698;23.124;2023-09-07T04:23:59;29927.81;;;-140.64;100.00
7930;BME280;4010;42.698;23.124;2023-09-07T04:26:26;26848.66;;;-140.64;100.00
7930;BME280;4010;42.698;23.124;2023-09-07T04:28:52;23772.38;;;-140.64;100.00
7930;BME280;4010;42.698;23.124;2023-09-07T04:31:20;20186.94;;;-140.64;100.00
7930;BME280;4010;42.698;23.124;2023-09-07T04:33:49;18139.88;;;-140.64;100.00
7930;BME280;4010;42.698;23.124;2023-09-07T04:36:16;15327.19;;;-140.64;100.00
7930;BME280;4010;42.698;23.124;2023-09-07T04:38:43;14305.00;;;-140.64;100.00
7930;BME280;4010;42.698;23.124;2023-09-07T04:41:11;13027.72;;;-140.64;100.00
7930;BME280;4010;42.698;23.124;2023-09-07T04:43:39;12516.94;;;-140.64;100.00
7930;BME280;4010;42.698;23.124;2023-09-07T04:46:08;11495.59;;;-140.64;100.00
7930;BME280;4010;42.698;23.124;2023-09-07T04:48:36;10985.06;;;-140.64;100.00
7930;BME280;4010;42.698;23.124;2023-09-07T04:51:05;10219.38;;;-140.64;100.00
7930;BME280;4010;42.698;23.124;2023-09-07T04:53:33;8943.66;;;-140.64;100.00
7930;BME280;4010;42.698;23.124;2023-09-07T04:56:01;9453.91;;;-140.64;100.00
7930;BME280;4010;42.698;23.124;2023-09-07T04:58:28;9198.78;;;-140.64;100.00
7930;BME280;4010;42.698;23.124;2023-09-07T05:01:01;9709.03;;;-140.64;100.00
7930;BME280;4010;42.698;23.124;2023-09-07T05:03:28;8688.59;;;-140.64;100.00
7930;BME280;4010;42.698;23.124;2023-09-07T05:05:56;7668.44;;;-140.64;100.00
7930;BME280;4010;42.698;23.124;2023-09-07T05:08:23;6648.63;;;-140.64;100.00
7930;BME280;4010;42.698;23.124;2023-09-07T05:10:54;6138.81;;;-140.64;100.00
7930;BME280;4010;42.698;23.124;2023-09-07T05:13:22;5883.94;;;-140.64;100.00
7930;BME280;4010;42.698;23.124;2023-09-07T05:15:48;6138.81;;;-140.64;100.00
7930;BME280;4010;42.698;23.124;2023-09-07T05:18:15;5629.09;;;-140.64;100.00
7930;BME280;4010;42.698;23.124;2023-09-07T05:20:42;6138.81;;;-140.64;100.00
7930;BME280;4010;42.698;23.124;2023-09-07T05:23:11;5883.94;;;-140.64;100.00
7930;BME280;4010;42.698;23.124;2023-09-07T05:25:43;6648.63;;;-140.64;100.00
7930;BME280;4010;42.698;23.124;2023-09-07T05:28:09;7158.47;;;-140.64;100.00
7930;BME280;4010;42.698;23.124;2023-09-07T05:30:36;7413.44;;;-140.64;100.00
7930;BME280;4010;42.698;23.124;2023-09-07T05:33:03;7923.44;;;-140.64;100.00
7930;BME280;4010;42.698;23.124;2023-09-07T05:35:30;8688.59;;;-140.64;100.00
7930;BME280;4010;42.698;23.124;2023-09-07T05:37:57;11240.31;;;-140.64;100.00
7930;BME280;4010;42.698;23.124;2023-09-07T05:40:25;11495.59;;;-140.64;100.00
7930;BME280;4010;42.698;23.124;2023-09-07T05:42:52;13538.56;;;-140.64;100.00
7930;BME280;4010;42.698;23.124;2023-09-07T05:45:19;17884.06;;;-140.64;100.00
7930;BME280;4010;42.698;23.124;2023-09-07T05:47:45;18907.38;;;-140.64;100.00
7930;BME280;4010;42.698;23.124;2023-09-07T05:50:12;17116.81;;;-140.64;100.00
7930;BME280;4010;42.698;23.124;2023-09-07T05:52:39;16349.72;;;-140.64;100.00
7930;BME280;4010;42.698;23.124;2023-09-07T05:55:06;16094.06;;;-140.64;100.00
7930;BME280;4010;42.698;23.124;2023-09-07T05:57:34;17628.28;;;-140.64;100.00
7930;BME280;4010;42.698;23.124;2023-09-07T06:00:02;18651.53;;;-140.64;100.00
7930;BME280;4010;42.698;23.124;2023-09-07T06:02:29;20954.91;;;-140.64;100.00
7930;BME280;4010;42.698;23.124;2023-09-07T06:04:56;25822.91;;;-140.64;100.00
7930;BME280;4010;42.698;23.124;2023-09-07T06:07:23;35837.44;;;-140.64;100.00
7930;BME280;4010;42.698;23.124;2023-09-07T06:09:49;46139.91;;;-140.64;100.00
7930;BME280;4010;42.698;23.124;2023-09-07T06:12:16;52078.13;;;-140.64;100.00
7930;BME280;4010;42.698;23.124;2023-09-07T06:14:44;62430.38;;;-140.64;100.00
7930;BME280;4010;42.698;23.124;2023-09-07T06:17:11;84533.69;;;-140.64;100.00
7930;BME280;4010;42.698;23.124;2023-09-07T06:19:38;108880.72;;;-140.64;100.00
7930;BME280;4010;42.698;23.124;2023-09-07T06:22:05;112297.66;;;-140.64;100.00
7930;BME280;4010;42.698;23.124;2023-09-07T06:24:32;118349.16;;;-140.64;100.00
7930;BME280;4010;42.698;23.124;2023-09-07T06:26:58;118349.16;;;-140.64;100.00
7930;BME280;4010;42.698;23.124;2023-09-07T06:29:25;118349.16;;;-140.64;100.00
7930;BME280;4010;42.698;23.124;2023-09-07T06:31:53;118349.16;;;-140.64;100.00
7930;BME280;4010;42.698;23.124;2023-09-07T06:34:20;118349.16;;;-140.64;100.00
7930;BME280;4010;42.698;23.124;2023-09-07T06:36:47;118349.16;;;-140.64;100.00
7930;BME280;4010;42.698;23.124;2023-09-07T06:39:13;118349.16;;;-140.64;100.00
7930;BME280;4010;42.698;23.124;2023-09-07T06:41:40;118349.16;;;-140.64;100.00
7930;BME280;4010;42.698;23.124;2023-09-07T06:44:07;118349.16;;;-140.64;100.00
7930;BME280;4010;42.698;23.124;2023-09-07T06:46:34;118349.16;;;-140.64;100.00
7930;BME280;4010;42.698;23.124;2023-09-07T06:49:02;118349.16;;;-140.64;100.00
7930;BME280;4010;42.698;23.124;2023-09-07T06:51:30;118349.16;;;-140.64;100.00
7930;BME280;4010;42.698;23.124;2023-09-07T06:53:57;118349.16;;;-140.64;100.00
7930;BME280;4010;42.698;23.124;2023-09-07T06:56:24;118349.16;;;-140.64;100.00
7930;BME280;4010;42.698;23.124;2023-09-07T06:58:52;118349.16;;;-140.64;100.00
7930;BME280;4010;42.698;23.124;2023-09-07T07:01:19;118349.16;;;-140.64;100.00
7930;BME280;4010;42.698;23.124;2023-09-07T07:03:45;118349.16;;;-140.64;100.00
7930;BME280;4010;42.698;23.124;2023-09-07T07:06:13;118349.16;;;-140.64;100.00
7930;BME280;4010;42.698;23.124;2023-09-07T07:08:40;118349.16;;;-140.64;100.00
7930;BME280;4010;42.698;23.124;2023-09-07T07:11:07;118349.16;;;-140.64;100.00
7930;BME280;4010;42.698;23.124;2023-09-07T07:13:34;118349.16;;;-140.64;100.00
7930;BME280;4010;42.698;23.124;2023-09-07T07:16:02;118349.16;;;-140.64;100.00
7930;BME280;4010;42.698;23.124;2023-09-07T07:18:29;118349.16;;;-140.64;100.00
7930;BME280;4010;42.698;23.124;2023-09-07T07:20:56;118349.16;;;-140.64;100.00
7930;BME280;4010;42.698;23.124;2023-09-07T07:23:24;118349.16;;;-140.64;100.00
7930;BME280;4010;42.698;23.124;2023-09-07T07:25:50;118349.16;;;-140.64;100.00
7930;BME280;4010;42.698;23.124;2023-09-07T07:28:17;118349.16;;;-140.64;100.00
7930;BME280;4010;42.698;23.124;2023-09-07T07:30:44;118349.16;;;-140.64;100.00
7930;BME280;4010;42.698;23.124;2023-09-07T07:33:10;118349.16;;;-140.64;100.00
7930;BME280;4010;42.698;23.124;2023-09-07T07:35:38;118349.16;;;-140.64;100.00
7930;BME280;4010;42.698;23.124;2023-09-07T07:38:05;118349.16;;;-140.64;100.00
7930;BME280;4010;42.698;23.124;2023-09-07T07:40:34;118349.16;;;-140.64;100.00
7930;BME280;4010;42.698;23.124;2023-09-07T07:43:00;118349.16;;;-140.64;100.00
7930;BME280;4010;42.698;23.124;2023-09-07T07:45:28;118349.16;;;-140.64;100.00
7930;BME280;4010;42.698;23.124;2023-09-07T07:47:55;118349.16;;;-140.64;100.00
7930;BME280;4010;42.698;23.124;2023-09-07T07:50:21;118349.16;;;-140.64;100.00
7930;BME280;4010;42.698;23.124;2023-09-07T07:52:48;118349.16;;;-140.64;100.00
7930;BME280;4010;42.698;23.124;2023-09-07T07:55:14;118349.16;;;-140.64;100.00
7930;BME280;4010;42.698;23.124;2023-09-07T07:57:42;118349.16;;;-140.64;100.00
7930;BME280;4010;42.698;23.124;2023-09-07T08:00:10;118349.16;;;-140.64;100.00
7930;BME280;4010;42.698;23.124;2023-09-07T08:02:37;118349.16;;;-140.64;100.00
7930;BME280;4010;42.698;23.124;2023-09-07T08:05:04;118349.16;;;-140.64;100.00
7930;BME280;4010;42.698;23.124;2023-09-07T08:07:31;118349.16;;;-140.64;100.00
7930;BME280;4010;42.698;23.124;2023-09-07T08:09:58;118349.16;;;-140.64;98.96
7930;BME280;4010;42.698;23.124;2023-09-07T08:12:24;118349.16;;;-140.64;97.96
7930;BME280;4010;42.698;23.124;2023-09-07T08:14:52;118349.16;;;-140.64;95.12
7930;BME280;4010;42.698;23.124;2023-09-07T08:17:20;118349.16;;;-140.64;94.22
7930;BME280;4010;42.698;23.124;2023-09-07T08:19:48;118349.16;;;-140.64;93.21
7930;BME280;4010;42.698;23.124;2023-09-07T08:22:20;118349.16;;;-140.64;92.03
7930;BME280;4010;42.698;23.124;2023-09-07T08:24:47;118349.16;;;-140.64;91.39
7930;BME280;4010;42.698;23.124;2023-09-07T08:27:14;118349.16;;;-140.64;92.69
7930;BME280;4010;42.698;23.124;2023-09-07T08:29:43;118349.16;;;-140.64;91.31
7930;BME280;4010;42.698;23.124;2023-09-07T08:32:14;118349.16;;;-140.64;89.95
7930;BME280;4010;42.698;23.124;2023-09-07T08:34:40;118349.16;;;-140.64;91.21
7930;BME280;4010;42.698;23.124;2023-09-07T08:37:08;118349.16;;;-140.64;91.12
7930;BME280;4010;42.698;23.124;2023-09-07T08:39:35;118349.16;;;-140.64;89.97
7930;BME280;4010;42.698;23.124;2023-09-07T08:42:05;118349.16;;;-140.64;88.25
7930;BME280;4010;42.698;23.124;2023-09-07T08:44:33;118349.16;;;-140.64;87.81
7930;BME280;4010;42.698;23.124;2023-09-07T08:47:01;118349.16;;;-140.64;86.01
7930;BME280;4010;42.698;23.124;2023-09-07T08:49:30;118349.16;;;-140.64;86.21
7930;BME280;4010;42.698;23.124;2023-09-07T08:51:59;118349.16;;;-140.64;86.54
7930;BME280;4010;42.698;23.124;2023-09-07T08:54:26;118349.16;;;-140.64;86.19
7930;BME280;4010;42.698;23.124;2023-09-07T08:56:56;118349.16;;;-140.64;85.44
7930;BME280;4010;42.698;23.124;2023-09-07T08:59:23;118349.16;;;-140.64;86.60
7930;BME280;4010;42.698;23.124;2023-09-07T09:01:49;118349.16;;;-140.64;82.67
7930;BME280;4010;42.698;23.124;2023-09-07T09:04:16;118349.16;;;-140.64;83.45
7930;BME280;4010;42.698;23.124;2023-09-07T09:06:44;118349.16;;;-140.64;81.15
7930;BME280;4010;42.698;23.124;2023-09-07T09:09:22;118349.16;;;-140.64;78.37
7930;BME280;4010;42.698;23.124;2023-09-07T09:11:49;118349.16;;;-140.64;78.89
7930;BME280;4010;42.698;23.124;2023-09-07T09:14:17;118349.16;;;-140.64;78.55
7930;BME280;4010;42.698;23.124;2023-09-07T09:16:48;118349.16;;;-140.64;75.55
7930;BME280;4010;42.698;23.124;2023-09-07T09:19:16;118349.16;;;-140.64;77.35
7930;BME280;4010;42.698;23.124;2023-09-07T09:21:45;118349.16;;;-140.64;79.06
7930;BME280;4010;42.698;23.124;2023-09-07T09:24:12;118349.16;;;-140.64;78.42
7930;BME280;4010;42.698;23.124;2023-09-07T09:26:39;118349.16;;;-140.64;77.40
7930;BME280;4010;42.698;23.124;2023-09-07T09:29:08;118349.16;;;-140.64;77.86
7930;BME280;4010;42.698;23.124;2023-09-07T09:31:35;118349.16;;;-140.64;80.71
7930;BME280;4010;42.698;23.124;2023-09-07T09:34:02;118349.16;;;-140.64;77.85
7930;BME280;4010;42.698;23.124;2023-09-07T09:36:33;118349.16;;;-140.64;77.60
7930;BME280;4010;42.698;23.124;2023-09-07T09:39:02;118349.16;;;-140.64;76.70
7930;BME280;4010;42.698;23.124;2023-09-07T09:41:32;118349.16;;;-140.64;75.75
7930;BME280;4010;42.698;23.124;2023-09-07T09:44:00;118349.16;;;-140.64;75.63
7930;BME280;4010;42.698;23.124;2023-09-07T09:46:31;118349.16;;;-140.64;75.69
7930;BME280;4010;42.698;23.124;2023-09-07T09:48:58;118349.16;;;-140.64;73.98
7930;BME280;4010;42.698;23.124;2023-09-07T09:51:27;118349.16;;;-140.64;70.69
7930;BME280;4010;42.698;23.124;2023-09-07T09:53:55;118349.16;;;-140.64;71.12
7930;BME280;4010;42.698;23.124;2023-09-07T09:56:23;118349.16;;;-140.64;71.82
7930;BME280;4010;42.698;23.124;2023-09-07T09:58:51;118349.16;;;-140.64;71.78
7930;BME280;4010;42.698;23.124;2023-09-07T10:01:20;118349.16;;;-140.64;74.85
7930;BME280;4010;42.698;23.124;2023-09-07T10:03:48;118349.16;;;-140.64;72.32
7930;BME280;4010;42.698;23.124;2023-09-07T10:06:22;118349.16;;;-140.64;70.96
7930;BME280;4010;42.698;23.124;2023-09-07T10:08:58;118349.16;;;-140.64;72.39
7930;BME280;4010;42.698;23.124;2023-09-07T10:11:31;118349.16;;;-140.64;71.34
7930;BME280;4010;42.698;23.124;2023-09-07T10:13:59;118349.16;;;-140.64;71.20
7930;BME280;4010;42.698;23.124;2023-09-07T10:16:25;118349.16;;;-140.64;70.06
7930;BME280;4010;42.698;23.124;2023-09-07T10:18:53;118349.16;;;-140.64;69.58
7930;BME280;4010;42.698;23.124;2023-09-07T10:21:23;118349.16;;;-140.64;67.09
7930;BME280;4010;42.698;23.124;2023-09-07T10:23:51;118349.16;;;-140.64;70.26
7930;BME280;4010;42.698;23.124;2023-09-07T10:26:19;118349.16;;;-140.64;69.28
7930;BME280;4010;42.698;23.124;2023-09-07T10:28:58;118349.16;;;-140.64;67.07
7930;BME280;4010;42.698;23.124;2023-09-07T10:31:26;118349.16;;;-140.64;67.00
7930;BME280;4010;42.698;23.124;2023-09-07T10:33:53;118349.16;;;-140.64;67.51
7930;BME280;4010;42.698;23.124;2023-09-07T10:36:20;118349.16;;;-140.64;68.83
7930;BME280;4010;42.698;23.124;2023-09-07T10:38:48;118349.16;;;-140.64;66.21
7930;BME280;4010;42.698;23.124;2023-09-07T10:41:15;118349.16;;;-140.64;68.42
7930;BME280;4010;42.698;23.124;2023-09-07T10:43:49;118349.16;;;-140.64;66.44
7930;BME280;4010;42.698;23.124;2023-09-07T10:46:18;118349.16;;;-140.64;67.08
7930;BME280;4010;42.698;23.124;2023-09-07T10:48:45;118349.16;;;-140.64;66.02
7930;BME280;4010;42.698;23.124;2023-09-07T10:51:14;118349.16;;;-140.64;68.12
7930;BME280;4010;42.698;23.124;2023-09-07T10:53:42;118349.16;;;-140.64;65.91
7930;BME280;4010;42.698;23.124;2023-09-07T10:56:08;118349.16;;;-140.64;64.48
7930;BME280;4010;42.698;23.124;2023-09-07T10:58:37;118349.16;;;-140.64;63.00
7930;BME280;4010;42.698;23.124;2023-09-07T11:01:08;118349.16;;;-140.64;67.39
7930;BME280;4010;42.698;23.124;2023-09-07T11:03:36;118349.16;;;-140.64;64.26
7930;BME280;4010;42.698;23.124;2023-09-07T11:06:06;118349.16;;;-140.64;64.76
7930;BME280;4010;42.698;23.124;2023-09-07T11:08:34;118349.16;;;-140.64;66.71
7930;BME280;4010;42.698;23.124;2023-09-07T11:11:02;118349.16;;;-140.64;60.24
7930;BME280;4010;42.698;23.124;2023-09-07T11:13:29;118349.16;;;-140.64;62.45
7930;BME280;4010;42.698;23.124;2023-09-07T11:15:57;118349.16;;;-140.64;63.38
7930;BME280;4010;42.698;23.124;2023-09-07T11:18:26;118349.16;;;-140.64;62.68
7930;BME280;4010;42.698;23.124;2023-09-07T11:20:53;118349.16;;;-140.64;63.08
7930;BME280;4010;42.698;23.124;2023-09-07T11:23:21;118349.16;;;-140.64;64.08
7930;BME280;4010;42.698;23.124;2023-09-07T11:25:48;118349.16;;;-140.64;61.77
7930;BME280;4010;42.698;23.124;2023-09-07T11:28:17;118349.16;;;-140.64;65.52
7930;BME280;4010;42.698;23.124;2023-09-07T11:30:54;118349.16;;;-140.64;65.06
7930;BME280;4010;42.698;23.124;2023-09-07T11:33:21;118349.16;;;-140.64;64.92
7930;BME280;4010;42.698;23.124;2023-09-07T11:35:49;118349.16;;;-140.64;66.67
7930;BME280;4010;42.698;23.124;2023-09-07T11:38:17;118349.16;;;-140.64;66.94
7930;BME280;4010;42.698;23.124;2023-09-07T11:40:44;118349.16;;;-140.64;67.07
7930;BME280;4010;42.698;23.124;2023-09-07T11:43:11;118349.16;;;-140.64;67.69
7930;BME280;4010;42.698;23.124;2023-09-07T11:45:38;118349.16;;;-140.64;68.49
7930;BME280;4010;42.698;23.124;2023-09-07T11:48:05;118349.16;;;-140.64;66.45
7930;BME280;4010;42.698;23.124;2023-09-07T11:50:33;118349.16;;;-140.64;72.61
7930;BME280;4010;42.698;23.124;2023-09-07T11:53:01;118349.16;;;-140.64;68.98
7930;BME280;4010;42.698;23.124;2023-09-07T11:55:28;118349.16;;;-140.64;71.40
7930;BME280;4010;42.698;23.124;2023-09-07T11:57:55;118349.16;;;-140.64;70.34
7930;BME280;4010;42.698;23.124;2023-09-07T12:00:22;118349.16;;;-140.64;69.13
7930;BME280;4010;42.698;23.124;2023-09-07T12:02:49;118349.16;;;-140.64;68.78
7930;BME280;4010;42.698;23.124;2023-09-07T12:05:15;118349.16;;;-140.64;70.06
7930;BME280;4010;42.698;23.124;2023-09-07T12:07:44;118349.16;;;-140.64;70.71
7930;BME280;4010;42.698;23.124;2023-09-07T12:10:12;118349.16;;;-140.64;72.04
7930;BME280;4010;42.698;23.124;2023-09-07T12:12:39;118349.16;;;-140.64;69.51
7930;BME280;4010;42.698;23.124;2023-09-07T12:15:07;118349.16;;;-140.64;71.18
7930;BME280;4010;42.698;23.124;2023-09-07T12:17:35;118349.16;;;-140.64;71.07
7930;BME280;4010;42.698;23.124;2023-09-07T12:20:02;118349.16;;;-140.64;69.51
7930;BME280;4010;42.698;23.124;2023-09-07T12:22:30;118349.16;;;-140.64;70.45
7930;BME280;4010;42.698;23.124;2023-09-07T12:24:59;118349.16;;;-140.64;68.96
7930;BME280;4010;42.698;23.124;2023-09-07T12:27:27;118349.16;;;-140.64;70.08
7930;BME280;4010;42.698;23.124;2023-09-07T12:29:54;118349.16;;;-140.64;69.94
7930;BME280;4010;42.698;23.124;2023-09-07T12:32:20;118349.16;;;-140.64;71.16
7930;BME280;4010;42.698;23.124;2023-09-07T12:34:47;118349.16;;;-140.64;70.04
7930;BME280;4010;42.698;23.124;2023-09-07T12:37:18;118349.16;;;-140.64;69.16